Bookmark and Share
Track history (hours):
 

Freedom Monarch

Last reported at 2013-Mar-26 01:18 UTC. Time now 2014-Apr-23 15:32 UTC.
Position S 27°52' E 153°20'.
Warning: this ship's position is years out of date!

; draft 1.7 m.

Type: Passenger vessel. MMSI: 503438900.

NotesDate/timePositionNaut miles runAvg speedWind from/ knotsBaromVisibWave heightAir tempDewpointWater temp
2013-Mar-26 01:18S 27°52' E 153°20'0 0.0
2013-Mar-26 00:33S 27°52' E 153°20'0 0.0
2013-Mar-25 23:33S 27°52' E 153°20'0 0.0
2013-Mar-25 22:33S 27°52' E 153°20'4 4.2
2013-Mar-25 21:33S 27°53' E 153°25'10 9.7
2013-Mar-25 20:34S 27°45' E 153°30'2120.5
2013-Mar-25 19:33S 27°25' E 153°35'24116.7
2013-Mar-25 05:07S 23°54' E 151°24'917.0
2013-Mar-25 04:33S 23°50' E 151°15'0 0.2
2013-Mar-25 03:33S 23°50' E 151°15'0 0.0
2013-Mar-25 02:33S 23°50' E 151°15'1 1.2
2013-Mar-25 01:34S 23°50' E 151°16'3 3.3
2013-Mar-25 00:33S 23°48' E 151°13'0 0.4
2013-Mar-24 23:34S 23°48' E 151°14'3 2.7
2013-Mar-24 22:33S 23°50' E 151°16'4 3.5
2013-Mar-24 21:34S 23°48' E 151°13'3 3.4
2013-Mar-24 20:33S 23°50' E 151°16'0 0.1
2013-Mar-24 19:33S 23°50' E 151°16'0 0.3
2013-Mar-24 18:33S 23°50' E 151°16'0 0.0
2013-Mar-23 22:33S 23°50' E 151°16'5 4.7
2013-Mar-23 21:33S 23°47' E 151°12'0 0.0
2013-Mar-23 20:33S 23°47' E 151°12'3 2.6
2013-Mar-23 19:34S 23°49' E 151°14'1 0.2
2013-Mar-23 14:33S 23°48' E 151°13'2 1.8
2013-Mar-23 13:33S 23°47' E 151°12'5 4.6
2013-Mar-23 12:33S 23°50' E 151°16'1 0.1
2013-Mar-23 05:33S 23°50' E 151°15'4 4.2
2013-Mar-23 04:33S 23°47' E 151°12'5 0.6
2013-Mar-22 20:33S 23°50' E 151°16'0 0.3
2013-Mar-22 19:33S 23°50' E 151°16'0 0.3
2013-Mar-22 18:33S 23°50' E 151°16'0 0.0
2013-Mar-22 17:33S 23°50' E 151°16'5 5.2
2013-Mar-22 16:33S 23°47' E 151°12'0 0.0
2013-Mar-22 11:33S 23°47' E 151°12'5 5.2
2013-Mar-22 10:33S 23°50' E 151°16'0 0.0
2013-Mar-22 09:31S 23°50' E 151°16'5 5.3
2013-Mar-22 08:33S 23°47' E 151°12'1 1.1
2013-Mar-22 07:33S 23°48' E 151°13'3 3.2
2013-Mar-22 06:33S 23°50' E 151°15'1 0.1
2013-Mar-21 20:33S 23°50' E 151°16'0 0.1
2013-Mar-21 19:33S 23°50' E 151°16'0 0.2
2013-Mar-21 18:33S 23°50' E 151°16'0 0.0
2013-Mar-21 17:33S 23°50' E 151°16'5 5.2
2013-Mar-21 16:33S 23°47' E 151°12'0 0.0
2013-Mar-21 11:31S 23°47' E 151°12'5 5.5
2013-Mar-21 10:33S 23°50' E 151°16'0 0.0
2013-Mar-21 09:33S 23°50' E 151°16'5 5.2
2013-Mar-21 08:33S 23°47' E 151°12'1 1.4
2013-Mar-21 07:33S 23°48' E 151°13'3 3.0
2013-Mar-21 06:33S 23°50' E 151°15'0 0.0
2013-Mar-20 21:13S 23°50' E 151°15'1 1.9
2013-Mar-20 20:33S 23°50' E 151°16'0 0.4
2013-Mar-20 19:33S 23°50' E 151°16'1 0.1
2013-Mar-20 08:13S 23°50' E 151°15'3 4.4
2013-Mar-20 07:33S 23°48' E 151°13'3 3.1
2013-Mar-20 06:33S 23°50' E 151°15'2 0.2
2013-Mar-19 21:34S 23°48' E 151°14'3 2.8
2013-Mar-19 20:33S 23°50' E 151°16'1 0.5
2013-Mar-19 19:33S 23°50' E 151°16'1 1.1
2013-Mar-19 18:33S 23°50' E 151°15'0 0.0
2013-Mar-19 09:09S 23°50' E 151°15'3 5.5
2013-Mar-19 08:33S 23°47' E 151°12'1 0.9
2013-Mar-19 07:33S 23°48' E 151°13'2 2.5
2013-Mar-19 06:33S 23°50' E 151°15'0 0.0
2013-Mar-18 21:33S 23°50' E 151°15'1 1.2
2013-Mar-18 20:33S 23°50' E 151°16'1 0.7
2013-Mar-18 19:33S 23°50' E 151°16'1 0.7
2013-Mar-18 18:33S 23°50' E 151°16'0 0.0
2013-Mar-18 17:33S 23°50' E 151°16'5 5.2
2013-Mar-18 16:34S 23°47' E 151°12'0 0.0
2013-Mar-18 11:31S 23°47' E 151°12'5 5.5
2013-Mar-18 10:33S 23°50' E 151°16'0 0.0
2013-Mar-18 09:33S 23°50' E 151°16'5 5.2
2013-Mar-18 08:33S 23°47' E 151°12'0 0.4
2013-Mar-18 07:27S 23°47' E 151°12'4 4.0
2013-Mar-18 06:33S 23°50' E 151°15'0 0.0
2013-Mar-18 04:32S 23°50' E 151°15'0 0.0
2013-Mar-18 03:33S 23°50' E 151°15'0 0.0
2013-Mar-18 02:33S 23°50' E 151°15'0 0.0
2013-Mar-18 01:33S 23°50' E 151°15'0 0.0
2013-Mar-18 00:33S 23°50' E 151°15'0 0.0
2013-Mar-17 23:33S 23°50' E 151°15'0 0.0
2013-Mar-17 22:33S 23°50' E 151°15'0 0.0
2013-Mar-17 21:33S 23°50' E 151°15'1 1.2
2013-Mar-17 20:33S 23°50' E 151°16'0 0.1
2013-Mar-17 19:33S 23°50' E 151°16'5 4.7
2013-Mar-17 18:33S 23°47' E 151°12'1 0.5
2013-Mar-17 17:33S 23°47' E 151°12'0 0.0
2013-Mar-17 16:32S 23°47' E 151°12'0 0.0
2013-Mar-17 15:32S 23°47' E 151°12'0 0.0
2013-Mar-17 14:33S 23°47' E 151°12'0 0.0
2013-Mar-17 13:33S 23°47' E 151°12'0 0.0
2013-Mar-17 12:33S 23°47' E 151°12'0 0.0
2013-Mar-17 11:32S 23°47' E 151°12'5 5.3
2013-Mar-17 10:33S 23°50' E 151°16'1 1.5
2013-Mar-17 09:33S 23°49' E 151°15'1 1.4
2013-Mar-17 08:34S 23°50' E 151°16'0 0.0
2013-Mar-16 22:33S 23°50' E 151°16'5 5.1
2013-Mar-16 21:33S 23°47' E 151°12'0 0.0
2013-Mar-16 20:33S 23°47' E 151°12'4 4.1
2013-Mar-16 19:34S 23°49' E 151°15'4 4.1
2013-Mar-16 18:33S 23°47' E 151°12'0 0.0
2013-Mar-16 17:33S 23°47' E 151°12'0 0.0
2013-Mar-16 16:32S 23°47' E 151°12'0 0.0
2013-Mar-16 15:33S 23°47' E 151°12'5 4.8
2013-Mar-16 14:33S 23°50' E 151°16'5 4.8
2013-Mar-16 13:33S 23°47' E 151°12'5 5.2
2013-Mar-16 12:33S 23°50' E 151°16'1 0.1
2013-Mar-16 05:33S 23°50' E 151°15'4 4.1
2013-Mar-16 04:33S 23°47' E 151°12'4 3.9
2013-Mar-16 03:33S 23°50' E 151°15'  

Dump ship's entire track history

sailing weather and tide predictions

Freedom Monarch — VMQ9761 — position and weather